This is the latest recevied weather packets stored in our database for station/object N3WAX-1. If no packets are shown the sender has not sent any weather packets the latest 10 day(s).
| Time | Temp. | Humidity | Pressure | Rain* | Wind** | Luminosity | Snow |
|---|---|---|---|---|---|---|---|
| 1777431824 | 11.11° C | 74% | 1018.6 hPa | 0 mm | - | 0 W/m² | - |
| 1777430618 | 11.67° C | 74% | 1018.1 hPa | 0 mm | - | 0 W/m² | - |
| 1777427318 | 11.67° C | 76% | 1017.9 hPa | 0 mm | - | 0 W/m² | - |
| 1777425514 | 11.67° C | 77% | 1017.4 hPa | 0 mm | - | 0 W/m² | - |
| 1777425207 | 11.67° C | 78% | 1017.6 hPa | 0 mm | - | 0 W/m² | - |
| 1777424735 | 11.67° C | 77% | 1017.6 hPa | 0 mm | - | 0 W/m² | - |
| 1777421497 | 12.22° C | 78% | 1018.5 hPa | 0 mm | - | 0 W/m² | - |
| 1777419058 | 12.78° C | 76% | 1018.4 hPa | 0 mm | - | 5 W/m² | - |
| 1777418284 | 12.78° C | 75% | 1018.3 hPa | 0 mm | - | 12 W/m² | - |
| 1777417521 | 12.78° C | 75% | 1018.4 hPa | 0 mm | - | 18 W/m² | - |
| 1777415524 | 12.78° C | 73% | 1018.5 hPa | 0 mm | - | 30 W/m² | - |
| 1777414484 | 13.33° C | 73% | 1018.4 hPa | 0 mm | - | 37 W/m² | - |
| 1777413885 | 13.33° C | 73% | 1018.4 hPa | 0 mm | - | 47 W/m² | - |
| 1777413728 | 13.33° C | 72% | 1018.5 hPa | 0 mm | - | 53 W/m² | - |
| 1777412384 | 13.33° C | 71% | 1018.4 hPa | 0 mm | - | 69 W/m² | - |
| 1777410427 | 13.33° C | 71% | 1018.4 hPa | 0 mm | - | 128 W/m² | - |
| 1777409373 | 13.33° C | 72% | 1018.4 hPa | 0 mm | - | 125 W/m² | - |
| 1777405611 | 12.78° C | 75% | 1019.1 hPa | 0 mm | - | 72 W/m² | - |
| 1777404568 | 12.78° C | 75% | 1019.3 hPa | 0 mm | - | 109 W/m² | - |
| 1777403663 | 12.78° C | 77% | 1019.5 hPa | 0 mm | - | 185 W/m² | - |
| 1777401562 | 12.22° C | 80% | 1020.1 hPa | 0 mm | - | 118 W/m² | - |
| 1777401262 | 12.22° C | 81% | 1020.3 hPa | 0 mm | - | 123 W/m² | - |
| 1777400963 | 12.22° C | 81% | 1020.3 hPa | 0 mm | - | 128 W/m² | - |
| 1777400361 | 12.78° C | 80% | 1020.4 hPa | 0 mm | - | 181 W/m² | - |
| 1777398081 | 13.89° C | 69% | 1020.6 hPa | 0 mm | - | 148 W/m² | - |
* Rain latest hour (hover to see other rain measurements)
** Current wind speed in m/s (hover to see current wind gust speed)